createdAt,value
2019-04-23T00:01:39.803Z,85.90
2019-04-23T00:04:08.544Z,86.10
2019-04-23T00:06:43.265Z,86.40
2019-04-23T00:09:20.381Z,86.40
2019-04-23T00:11:48.057Z,86.70
2019-04-23T00:14:20.694Z,87.30
2019-04-23T00:16:50.933Z,87.40
2019-04-23T00:19:17.004Z,88.50
2019-04-23T00:21:57.433Z,88.60
2019-04-23T00:27:28.832Z,89.20
2019-04-23T00:29:56.562Z,89.10
2019-04-23T00:32:28.730Z,89.30
2019-04-23T00:37:31.596Z,90.00
2019-04-23T00:39:59.202Z,90.00
2019-04-23T00:42:36.870Z,90.10
2019-04-23T00:45:01.751Z,90.30
2019-04-23T00:47:50.656Z,90.60
2019-04-23T00:50:30.303Z,90.90
2019-04-23T00:52:40.522Z,91.10
2019-04-23T00:55:14.491Z,91.20
2019-04-23T00:57:40.677Z,91.50
2019-04-23T01:00:19.277Z,91.50
2019-04-23T01:02:48.853Z,91.50
2019-04-23T01:05:20.273Z,91.70
2019-04-23T01:07:46.119Z,91.80
2019-04-23T01:10:23.377Z,91.90
2019-04-23T01:12:54.332Z,92.30
2019-04-23T01:15:25.813Z,92.20
2019-04-23T01:18:10.993Z,92.30
2019-04-23T01:20:28.437Z,92.50
2019-04-23T01:22:42.166Z,92.80
2019-04-23T01:25:34.410Z,93.10
2019-04-23T01:28:23.464Z,93.50
2019-04-23T01:33:27.149Z,94.60
2019-04-23T01:36:03.195Z,95.00
2019-04-23T01:38:23.739Z,95.20
2019-04-23T01:40:45.886Z,95.20
2019-04-23T01:43:24.941Z,95.10
2019-04-23T01:45:53.005Z,95.10
2019-04-23T01:48:27.919Z,95.00
2019-04-23T01:50:56.130Z,95.20
2019-04-23T01:53:34.639Z,95.30
2019-04-23T01:56:04.799Z,95.30
2019-04-23T01:58:53.649Z,95.50
2019-04-23T02:01:07.259Z,95.60
2019-04-23T02:06:07.113Z,95.80
2019-04-23T02:08:40.218Z,95.90
2019-04-23T02:13:43.506Z,96.10
2019-04-23T02:16:25.761Z,96.30
2019-04-23T02:18:37.367Z,96.40
2019-04-23T02:21:10.608Z,96.50
2019-04-23T02:23:49.091Z,96.50
2019-04-23T02:26:25.779Z,96.60
2019-04-23T02:28:54.857Z,96.80
2019-04-23T02:31:44.971Z,96.80
2019-04-23T02:36:29.253Z,97.10
2019-04-23T02:41:41.369Z,98.20
2019-04-23T02:44:13.128Z,98.90
2019-04-23T02:46:20.924Z,99.10
2019-04-23T02:49:18.081Z,99.20
2019-04-23T02:51:39.581Z,99.30
2019-04-23T03:01:57.596Z,99.90
2019-04-23T03:04:35.091Z,99.90
2019-04-23T03:06:55.963Z,99.90
2019-04-23T03:09:29.825Z,99.90
2019-04-23T03:17:00.199Z,99.90
2019-04-23T03:22:45.151Z,99.90
2019-04-23T03:30:12.203Z,99.90
2019-04-23T03:33:58.799Z,99.90
2019-04-23T03:36:17.237Z,99.90
2019-04-23T03:38:21.180Z,99.90
2019-04-23T03:43:14.558Z,99.90
2019-04-23T03:46:04.311Z,99.90
2019-04-23T03:53:32.325Z,99.90
2019-04-23T03:55:59.551Z,99.90
2019-04-23T04:03:48.170Z,99.90
2019-04-23T04:11:04.279Z,99.90
2019-04-23T04:13:31.484Z,99.90
2019-04-23T04:18:40.792Z,99.90
2019-04-23T04:21:11.788Z,99.90
2019-04-23T04:23:44.589Z,99.90
2019-04-23T04:26:08.973Z,99.90
2019-04-23T04:31:36.895Z,99.90
2019-04-23T04:34:00.727Z,99.90
2019-04-23T04:36:14.098Z,99.90
2019-04-23T04:44:36.477Z,99.90
2019-04-23T04:46:45.950Z,99.90
2019-04-23T04:49:55.850Z,99.90
2019-04-23T04:53:38.382Z,99.90
2019-04-23T04:56:40.471Z,99.90
2019-04-23T05:01:28.760Z,99.90
2019-04-23T05:04:14.007Z,99.90
2019-04-23T05:06:43.898Z,99.90
2019-04-23T05:09:13.781Z,99.90
2019-04-23T05:14:43.537Z,99.90
2019-04-23T05:24:45.180Z,99.90
2019-04-23T05:27:47.191Z,99.90
2019-04-23T05:30:15.466Z,99.90
2019-04-23T05:33:15.354Z,99.90
2019-04-23T05:38:37.148Z,99.90
2019-04-23T05:44:02.264Z,99.90
2019-04-23T05:49:27.994Z,99.90
2019-04-23T05:52:02.171Z,99.90
2019-04-23T05:54:32.848Z,99.90
2019-04-23T05:59:40.080Z,99.90
2019-04-23T06:02:11.007Z,99.90
2019-04-23T06:09:47.954Z,99.90
2019-04-23T06:12:21.379Z,99.90
2019-04-23T06:14:54.549Z,99.90
2019-04-23T06:17:21.258Z,99.90
2019-04-23T06:20:18.174Z,99.90
2019-04-23T06:23:25.304Z,99.90
2019-04-23T06:25:57.314Z,99.90
2019-04-23T06:30:56.013Z,99.90
2019-04-23T06:33:25.604Z,99.90
2019-04-23T06:35:57.273Z,99.90
2019-04-23T06:42:17.485Z,99.90
2019-04-23T06:44:57.939Z,99.90
2019-04-23T06:52:30.189Z,99.90
2019-04-23T06:58:51.204Z,99.90
2019-04-23T07:01:27.965Z,99.90
2019-04-23T07:04:30.600Z,99.90
2019-04-23T07:07:42.676Z,99.10
2019-04-23T07:10:28.367Z,95.70
2019-04-23T07:13:10.630Z,93.10
2019-04-23T07:15:50.091Z,91.70
2019-04-23T07:18:11.565Z,89.40
2019-04-23T07:20:49.093Z,89.70
2019-04-23T07:23:38.099Z,86.10
2019-04-23T07:26:08.800Z,86.90
2019-04-23T07:29:25.803Z,86.80
2019-04-23T07:35:59.962Z,86.50
2019-04-23T07:39:15.806Z,85.00
2019-04-23T07:42:18.399Z,82.70
2019-04-23T07:48:13.348Z,81.60
2019-04-23T07:51:46.767Z,81.00
2019-04-23T07:55:22.004Z,79.90
2019-04-23T08:01:03.666Z,80.30
2019-04-23T08:03:36.588Z,79.20
2019-04-23T08:06:21.586Z,80.30
2019-04-23T08:08:43.898Z,80.10
2019-04-23T08:13:53.649Z,78.20
2019-04-23T08:20:55.536Z,80.20
2019-04-23T08:29:23.983Z,78.30
2019-04-23T08:32:18.962Z,77.60
2019-04-23T08:34:43.034Z,76.30
2019-04-23T08:40:33.576Z,76.40
2019-04-23T08:43:31.453Z,76.00
2019-04-23T08:46:25.050Z,77.10
2019-04-23T08:49:00.713Z,77.90
2019-04-23T08:51:44.233Z,76.80
2019-04-23T08:54:17.471Z,76.00
2019-04-23T08:56:42.325Z,76.60
2019-04-23T08:59:22.865Z,76.30
2019-04-23T09:02:07.214Z,75.60
2019-04-23T09:04:24.002Z,74.30
2019-04-23T09:07:21.650Z,74.30
2019-04-23T09:10:26.547Z,74.10
2019-04-23T09:13:32.114Z,74.70
2019-04-23T09:15:49.802Z,73.80
2019-04-23T09:18:22.907Z,75.20
2019-04-23T09:20:56.712Z,76.30
2019-04-23T09:23:44.119Z,74.90
2019-04-23T09:26:07.940Z,75.30
2019-04-23T09:29:02.495Z,74.80
2019-04-23T09:36:40.619Z,75.60
2019-04-23T09:39:20.627Z,76.40
2019-04-23T09:42:08.781Z,76.40
2019-04-23T09:48:06.656Z,76.40
2019-04-23T09:54:08.280Z,77.10
2019-04-23T09:56:36.157Z,77.30
2019-04-23T10:02:06.713Z,76.70
2019-04-23T10:04:55.532Z,77.60
2019-04-23T10:07:50.814Z,76.60
2019-04-23T10:10:18.463Z,76.70
2019-04-23T10:20:10.835Z,75.80
2019-04-23T10:23:00.206Z,76.70
2019-04-23T10:25:52.263Z,76.70
2019-04-23T10:28:42.223Z,76.80
2019-04-23T10:31:26.933Z,75.40
2019-04-23T10:34:02.087Z,75.90
2019-04-23T10:36:42.174Z,75.50
2019-04-23T10:39:30.427Z,75.20
2019-04-23T10:42:18.305Z,76.20
2019-04-23T10:56:42.567Z,74.80
2019-04-23T10:59:12.199Z,75.10
2019-04-23T11:06:06.639Z,75.20
2019-04-23T11:08:25.529Z,74.80
2019-04-23T11:11:03.805Z,76.40
2019-04-23T11:13:38.375Z,75.60
2019-04-23T11:16:40.420Z,76.00
2019-04-23T11:31:09.347Z,75.00
2019-04-23T11:33:43.075Z,75.00
2019-04-23T11:41:39.226Z,74.90
2019-04-23T11:44:05.168Z,74.90
2019-04-23T11:54:17.710Z,75.00
2019-04-23T12:06:09.476Z,75.50
2019-04-23T12:12:53.399Z,75.10
2019-04-23T12:15:38.118Z,74.30
2019-04-23T12:18:16.971Z,74.90
2019-04-23T12:23:54.479Z,75.50
2019-04-23T12:27:30.702Z,75.60
2019-04-23T12:34:44.319Z,75.30
2019-04-23T12:41:55.891Z,75.90
2019-04-23T12:45:17.700Z,76.30
2019-04-23T12:47:56.337Z,76.60
2019-04-23T12:50:38.767Z,75.60
2019-04-23T12:58:37.903Z,74.90
2019-04-23T13:01:19.984Z,75.00
2019-04-23T13:03:59.753Z,75.30
2019-04-23T13:06:39.263Z,75.10
2019-04-23T13:15:34.758Z,74.00
2019-04-23T13:18:31.887Z,73.10
2019-04-23T13:22:03.085Z,73.00
2019-04-23T13:32:21.065Z,72.60
2019-04-23T13:35:00.563Z,72.60
2019-04-23T13:37:30.996Z,71.60
2019-04-23T13:40:11.187Z,72.00
2019-04-23T13:43:19.552Z,72.00
2019-04-23T13:46:17.064Z,72.50
2019-04-23T13:48:49.184Z,72.50
2019-04-23T13:53:59.344Z,72.50
2019-04-23T14:01:23.461Z,73.10
2019-04-23T14:04:00.111Z,73.70
2019-04-23T14:22:56.041Z,75.70
2019-04-23T14:25:07.811Z,75.80
2019-04-23T14:28:02.067Z,74.80
2019-04-23T14:32:54.237Z,75.00
2019-04-23T14:39:52.381Z,75.50
2019-04-23T14:46:00.440Z,75.60
2019-04-23T14:48:10.456Z,75.30
2019-04-23T14:53:20.292Z,76.10
2019-04-23T14:56:49.785Z,76.10
2019-04-23T15:01:16.005Z,77.10
2019-04-23T15:07:13.221Z,76.70
2019-04-23T15:10:26.327Z,76.50
2019-04-23T15:16:08.087Z,75.90
2019-04-23T15:21:45.288Z,72.80
2019-04-23T15:27:55.546Z,70.70
2019-04-23T15:29:09.311Z,70.40
2019-04-23T15:35:37.106Z,70.90
2019-04-23T15:44:57.737Z,70.20
2019-04-23T15:53:01.490Z,70.40
2019-04-23T15:55:44.365Z,70.80
2019-04-23T15:58:48.554Z,70.90
2019-04-23T16:01:39.694Z,71.10
2019-04-23T16:04:19.853Z,71.50
2019-04-23T16:07:13.647Z,71.70
2019-04-23T16:11:17.144Z,72.10
2019-04-23T16:17:21.240Z,72.00
2019-04-23T16:20:28.807Z,72.20
2019-04-23T16:23:26.376Z,71.70
2019-04-23T16:33:30.195Z,75.10
2019-04-23T16:36:41.386Z,75.50
2019-04-23T16:39:21.505Z,75.60
2019-04-23T16:42:17.501Z,76.50
2019-04-23T16:49:13.075Z,77.40
2019-04-23T16:52:21.545Z,77.80
2019-04-23T16:55:22.403Z,78.20
2019-04-23T17:00:24.693Z,79.50
2019-04-23T17:03:12.392Z,80.00
2019-04-23T17:06:06.793Z,79.70
2019-04-23T17:08:57.887Z,80.40
2019-04-23T17:12:10.896Z,80.60
2019-04-23T17:14:56.194Z,80.90
2019-04-23T17:17:22.978Z,81.30
2019-04-23T17:20:10.285Z,81.80
2019-04-23T17:22:38.758Z,82.20
2019-04-23T17:25:13.737Z,82.50
2019-04-23T17:30:20.294Z,83.40
2019-04-23T17:33:13.582Z,83.50
2019-04-23T17:36:06.932Z,83.80
2019-04-23T17:38:45.654Z,84.30
2019-04-23T17:41:29.326Z,84.90
2019-04-23T17:44:21.869Z,85.50
2019-04-23T17:47:06.055Z,86.00
2019-04-23T17:50:05.651Z,86.20
2019-04-23T17:53:03.160Z,86.70
2019-04-23T17:58:37.330Z,87.70
2019-04-23T18:04:14.038Z,88.50
2019-04-23T18:09:18.434Z,89.60
2019-04-23T18:16:25.917Z,90.20
2019-04-23T18:18:56.297Z,90.40
2019-04-23T18:22:05.295Z,90.70
2019-04-23T18:24:51.847Z,90.70
2019-04-23T18:27:23.463Z,90.90
2019-04-23T18:30:08.277Z,91.00
2019-04-23T18:33:12.505Z,91.10
2019-04-23T18:35:42.794Z,91.20
2019-04-23T18:43:29.861Z,91.70
2019-04-23T18:46:06.922Z,92.00
2019-04-23T18:48:49.726Z,92.10
2019-04-23T18:51:20.950Z,92.30
2019-04-23T18:53:52.646Z,92.40
2019-04-23T18:56:51.503Z,92.50
2019-04-23T18:59:30.730Z,92.70
2019-04-23T19:02:35.220Z,93.00
2019-04-23T19:08:01.366Z,93.10
2019-04-23T19:10:52.263Z,93.20
2019-04-23T19:13:26.939Z,93.50
2019-04-23T19:16:01.721Z,93.70
2019-04-23T19:18:40.453Z,93.80
2019-04-23T19:21:30.113Z,93.90
2019-04-23T19:23:50.851Z,94.00
2019-04-23T19:26:45.636Z,94.20
2019-04-23T19:29:00.418Z,94.30
2019-04-23T19:32:35.541Z,94.40
2019-04-23T19:42:20.038Z,94.80
2019-04-23T19:45:12.425Z,94.90
2019-04-23T19:47:56.834Z,95.00
2019-04-23T19:50:25.857Z,95.10
2019-04-23T19:56:31.648Z,95.20
2019-04-23T19:58:56.656Z,95.20
2019-04-23T20:04:38.858Z,95.40
2019-04-23T20:12:42.907Z,95.50
2019-04-23T20:15:07.283Z,95.40
2019-04-23T20:20:26.529Z,95.70
2019-04-23T20:22:56.804Z,95.60
2019-04-23T20:26:02.720Z,95.70
2019-04-23T20:28:48.237Z,95.60
2019-04-23T20:32:06.205Z,95.70
2019-04-23T20:36:44.081Z,95.80
2019-04-23T20:39:33.049Z,95.80
2019-04-23T20:42:33.923Z,96.00
2019-04-23T20:49:01.914Z,95.90
2019-04-23T20:51:27.054Z,96.10
2019-04-23T20:54:05.278Z,96.20
2019-04-23T20:59:00.160Z,96.10
2019-04-23T21:02:07.572Z,96.10
2019-04-23T21:04:44.946Z,96.10
2019-04-23T21:07:12.128Z,96.10
2019-04-23T21:09:52.690Z,96.20
2019-04-23T21:12:15.525Z,96.40
2019-04-23T21:15:05.685Z,96.30
2019-04-23T21:17:15.024Z,96.30
2019-04-23T21:22:47.022Z,96.30
2019-04-23T21:25:31.061Z,96.40
2019-04-23T21:30:58.603Z,96.50
2019-04-23T21:42:14.711Z,96.30
2019-04-23T21:44:41.983Z,96.60
2019-04-23T21:50:52.524Z,96.50
2019-04-23T21:53:14.853Z,96.40
2019-04-23T21:58:48.427Z,96.30
2019-04-23T22:01:20.660Z,96.40
2019-04-23T22:04:06.834Z,96.40
2019-04-23T22:06:22.145Z,96.60
2019-04-23T22:08:54.029Z,96.50
2019-04-23T22:13:59.073Z,96.50
2019-04-23T22:16:27.790Z,96.40
2019-04-23T22:19:08.477Z,96.30
2019-04-23T22:21:33.393Z,96.20
2019-04-23T22:29:25.693Z,96.30
2019-04-23T22:32:12.964Z,96.10
2019-04-23T22:34:38.942Z,96.20
2019-04-23T22:37:14.606Z,96.20
2019-04-23T22:39:49.077Z,96.20
2019-04-23T22:42:34.918Z,96.20
2019-04-23T22:44:59.065Z,96.20
2019-04-23T22:47:18.368Z,96.30
2019-04-23T22:50:02.258Z,96.30
2019-04-23T22:55:02.257Z,96.10
2019-04-23T22:57:57.140Z,96.20
2019-04-23T23:00:16.503Z,96.30
2019-04-23T23:03:29.495Z,96.40
2019-04-23T23:06:04.455Z,96.50
2019-04-23T23:08:20.821Z,96.60
2019-04-23T23:11:02.577Z,96.50
2019-04-23T23:13:46.550Z,96.60
2019-04-23T23:16:19.517Z,96.70
2019-04-23T23:18:40.783Z,96.70
2019-04-23T23:23:47.801Z,96.80
2019-04-23T23:26:14.335Z,96.90
2019-04-23T23:28:55.823Z,97.00
2019-04-23T23:31:28.885Z,97.00
2019-04-23T23:34:02.649Z,97.20
2019-04-23T23:39:19.690Z,97.30
2019-04-23T23:44:29.877Z,97.50
2019-04-23T23:47:00.796Z,97.30
2019-04-23T23:49:24.362Z,97.40
2019-04-23T23:54:20.020Z,97.40
2019-04-23T23:57:09.217Z,97.70
